Time;durP1;ratioP1;P1;durP2;ratioP2;P2;SDS_P1;SDS_P2;PMS_P1;PMS_P2;Temp;Humidity;BMP_temperature;BMP_pressure;BME280_temperature;BME280_humidity;BME280_pressure;Samples;Min_cycle;Max_cycle;Signal;HPM_P1;HPM_P2
2023/02/24 00:00:50;;;;;;;;;;;18.00;65.10;;;;;;5038447;28;1961;-69
2023/02/24 00:03:15;;;;;;;;;;;18.10;65.10;;;;;;5038469;28;910;-69
2023/02/24 00:05:48;;;;;;;;;;;18.10;65.10;;;;;;5038996;28;833;-68
2023/02/24 00:08:14;;;;;;;;;;;18.10;65.10;;;;;;5038970;28;934;-69
2023/02/24 00:10:40;;;;;;;;;;;18.00;65.10;;;;;;5041416;28;1355;-69
2023/02/24 00:13:06;;;;;;;;;;;18.00;65.10;;;;;;5037269;28;848;-69
2023/02/24 00:15:31;;;;;;;;;;;18.00;65.10;;;;;;5038644;28;867;-69
2023/02/24 00:17:57;;;;;;;;;;;18.10;65.20;;;;;;5038008;28;858;-69
2023/02/24 00:20:23;;;;;;;;;;;18.00;65.20;;;;;;5039280;28;1315;-69
2023/02/24 00:22:49;;;;;;;;;;;18.00;65.10;;;;;;5039191;28;1967;-69
2023/02/24 00:25:14;;;;;;;;;;;18.10;65.20;;;;;;5035552;28;857;-69
2023/02/24 00:27:41;;;;;;;;;;;18.10;65.20;;;;;;5041126;28;848;-69
2023/02/24 00:30:09;;;;;;;;;;;18.00;65.20;;;;;;5036950;28;918;-69
2023/02/24 00:32:35;;;;;;;;;;;18.00;65.20;;;;;;5038678;28;1324;-69
2023/02/24 00:35:01;;;;;;;;;;;18.00;65.20;;;;;;5038218;28;862;-69
2023/02/24 00:37:26;;;;;;;;;;;18.00;65.20;;;;;;5039409;28;1441;-69
2023/02/24 00:39:56;;;;;;;;;;;18.00;66.00;;;;;;5038600;28;1101;-69
2023/02/24 00:42:21;;;;;;;;;;;18.00;65.20;;;;;;5038862;28;1906;-69
2023/02/24 00:44:47;;;;;;;;;;;18.00;65.30;;;;;;5038059;28;1080;-69
2023/02/24 00:47:13;;;;;;;;;;;18.00;65.20;;;;;;5039023;28;931;-69
2023/02/24 00:49:40;;;;;;;;;;;18.00;65.20;;;;;;5037286;28;882;-69
2023/02/24 00:52:16;;;;;;;;;;;18.00;65.30;;;;;;5040743;28;1468;-69
2023/02/24 00:54:42;;;;;;;;;;;18.00;65.30;;;;;;5036452;28;879;-69
2023/02/24 00:57:07;;;;;;;;;;;18.00;66.00;;;;;;5042241;28;853;-69
2023/02/24 00:59:33;;;;;;;;;;;18.00;65.30;;;;;;5069621;28;827;-69
2023/02/24 01:01:58;;;;;;;;;;;18.00;65.30;;;;;;5037085;28;1910;-69
2023/02/24 01:04:24;;;;;;;;;;;18.00;65.30;;;;;;5043239;28;857;-70
2023/02/24 01:06:58;;;;;;;;;;;18.00;65.30;;;;;;5036412;28;934;-69
2023/02/24 01:09:26;;;;;;;;;;;18.00;65.30;;;;;;5039190;28;943;-70
2023/02/24 01:12:37;;;;;;;;;;;18.00;65.30;;;;;;5039103;28;1374;-69
2023/02/24 01:14:46;;;;;;;;;;;18.00;65.40;;;;;;5043395;28;1042;-69
2023/02/24 01:17:12;;;;;;;;;;;17.90;65.30;;;;;;5037905;28;923;-70
2023/02/24 01:19:37;;;;;;;;;;;18.00;65.40;;;;;;5040189;28;876;-69
2023/02/24 01:22:03;;;;;;;;;;;18.00;65.40;;;;;;5040545;28;1973;-69
2023/02/24 01:24:33;;;;;;;;;;;18.00;65.40;;;;;;5040735;28;820;-69
2023/02/24 01:26:59;;;;;;;;;;;18.00;65.40;;;;;;5040017;28;862;-69
2023/02/24 01:29:24;;;;;;;;;;;18.00;65.40;;;;;;5042602;28;903;-69
2023/02/24 01:31:51;;;;;;;;;;;18.00;65.70;;;;;;5041605;28;1373;-69
2023/02/24 01:34:17;;;;;;;;;;;17.90;65.30;;;;;;5043257;28;896;-69
2023/02/24 01:36:42;;;;;;;;;;;18.00;65.40;;;;;;5026989;28;1490;-69
2023/02/24 01:39:09;;;;;;;;;;;17.90;65.40;;;;;;5042492;28;1290;-69
2023/02/24 01:41:42;;;;;;;;;;;17.90;65.40;;;;;;5044109;28;1968;-69
2023/02/24 01:44:16;;;;;;;;;;;17.90;65.40;;;;;;5038322;28;879;-69
2023/02/24 01:46:45;;;;;;;;;;;17.90;65.40;;;;;;5040617;28;935;-69
2023/02/24 01:49:12;;;;;;;;;;;17.90;65.40;;;;;;5044077;28;922;-69
2023/02/24 01:51:44;;;;;;;;;;;17.90;65.40;;;;;;5041528;28;1378;-69
2023/02/24 01:54:11;;;;;;;;;;;17.90;65.40;;;;;;5035450;28;1065;-69
2023/02/24 01:56:37;;;;;;;;;;;17.90;65.40;;;;;;5045705;28;944;-69
2023/02/24 01:59:03;;;;;;;;;;;17.90;65.40;;;;;;5042386;28;1947;-69
2023/02/24 02:01:28;;;;;;;;;;;17.90;65.40;;;;;;5039551;28;1965;-69
2023/02/24 02:03:57;;;;;;;;;;;17.90;65.40;;;;;;5036948;28;1023;-70
2023/02/24 02:06:22;;;;;;;;;;;17.90;65.40;;;;;;5037517;28;915;-70
2023/02/24 02:08:48;;;;;;;;;;;17.90;65.40;;;;;;5039622;28;812;-70
2023/02/24 02:11:19;;;;;;;;;;;17.90;65.40;;;;;;5038817;28;1335;-70
2023/02/24 02:13:44;;;;;;;;;;;17.90;65.40;;;;;;5041776;28;931;-70
2023/02/24 02:16:20;;;;;;;;;;;17.90;65.50;;;;;;5041151;28;990;-70
2023/02/24 02:19:04;;;;;;;;;;;17.90;65.50;;;;;;5039160;28;832;-70
2023/02/24 02:21:35;;;;;;;;;;;17.90;65.50;;;;;;5039511;28;1989;-70
2023/02/24 02:24:06;;;;;;;;;;;17.90;65.50;;;;;;5040423;28;885;-70
2023/02/24 02:26:52;;;;;;;;;;;17.90;65.50;;;;;;5039366;28;880;-70
2023/02/24 02:29:37;;;;;;;;;;;17.90;65.50;;;;;;5055768;28;1549;-70
2023/02/24 02:32:04;;;;;;;;;;;17.90;65.50;;;;;;5039410;28;1332;-70
2023/02/24 02:34:49;;;;;;;;;;;17.90;65.50;;;;;;5039986;28;915;-70
2023/02/24 02:37:19;;;;;;;;;;;17.90;65.50;;;;;;5038262;28;1484;-70
2023/02/24 02:39:57;;;;;;;;;;;17.90;65.50;;;;;;5037709;28;1046;-70
2023/02/24 02:42:23;;;;;;;;;;;17.90;65.50;;;;;;5038516;28;1973;-70
2023/02/24 02:44:54;;;;;;;;;;;17.90;65.50;;;;;;5039158;28;845;-69
2023/02/24 02:47:42;;;;;;;;;;;17.90;65.50;;;;;;5040152;28;1276;-69
2023/02/24 02:50:17;;;;;;;;;;;17.90;65.60;;;;;;5039134;28;897;-70
2023/02/24 02:52:46;;;;;;;;;;;17.90;65.60;;;;;;5041033;28;883;-69
2023/02/24 02:55:13;;;;;;;;;;;17.90;65.60;;;;;;5038963;28;854;-70
2023/02/24 02:57:40;;;;;;;;;;;17.90;65.60;;;;;;5037423;28;852;-70
2023/02/24 03:00:20;;;;;;;;;;;17.90;65.60;;;;;;5039893;28;835;-69
2023/02/24 03:02:46;;;;;;;;;;;17.90;65.60;;;;;;5036842;28;1902;-70
2023/02/24 03:05:16;;;;;;;;;;;17.90;65.60;;;;;;5038641;28;985;-70
2023/02/24 03:07:44;;;;;;;;;;;17.80;65.50;;;;;;5039618;28;998;-70
2023/02/24 03:10:16;;;;;;;;;;;17.90;65.60;;;;;;5040387;28;1211;-70
2023/02/24 03:12:41;;;;;;;;;;;17.80;65.50;;;;;;5041514;28;915;-70
2023/02/24 03:15:08;;;;;;;;;;;17.90;65.70;;;;;;5038515;28;959;-70
2023/02/24 03:17:35;;;;;;;;;;;17.80;65.50;;;;;;5039756;28;828;-70
2023/02/24 03:20:15;;;;;;;;;;;17.80;65.60;;;;;;5037580;28;824;-70
2023/02/24 03:22:42;;;;;;;;;;;17.80;65.60;;;;;;5027924;28;1963;-70
2023/02/24 03:25:07;;;;;;;;;;;17.80;65.60;;;;;;5042211;28;1404;-70
2023/02/24 03:27:36;;;;;;;;;;;17.80;65.60;;;;;;5046861;28;1062;-70
2023/02/24 03:30:08;;;;;;;;;;;17.80;65.60;;;;;;5036842;28;869;-70
2023/02/24 03:32:49;;;;;;;;;;;17.80;65.60;;;;;;5036856;28;1292;-70
2023/02/24 03:35:28;;;;;;;;;;;17.80;65.60;;;;;;5036653;28;930;-70
2023/02/24 03:37:56;;;;;;;;;;;17.80;65.60;;;;;;5039333;28;1191;-70
2023/02/24 03:40:27;;;;;;;;;;;17.80;65.60;;;;;;5021854;28;1703;-70
2023/02/24 03:42:53;;;;;;;;;;;17.80;65.60;;;;;;5040363;28;1923;-70
2023/02/24 03:45:21;;;;;;;;;;;17.80;65.60;;;;;;5039485;28;990;-70
2023/02/24 03:47:47;;;;;;;;;;;17.80;65.60;;;;;;5039492;28;790;-70
2023/02/24 03:50:16;;;;;;;;;;;17.80;65.60;;;;;;5041556;28;874;-69
2023/02/24 03:52:48;;;;;;;;;;;17.80;65.60;;;;;;5053846;28;1509;-69
2023/02/24 03:55:36;;;;;;;;;;;17.80;65.60;;;;;;5037959;28;879;-70
2023/02/24 03:58:03;;;;;;;;;;;17.80;65.70;;;;;;5037775;28;1214;-70
2023/02/24 04:00:37;;;;;;;;;;;17.80;65.70;;;;;;5039524;28;1345;-70
2023/02/24 04:03:09;;;;;;;;;;;17.80;65.60;;;;;;5040628;28;1930;-70
2023/02/24 04:05:38;;;;;;;;;;;17.80;65.70;;;;;;5037618;28;911;-70
2023/02/24 04:08:07;;;;;;;;;;;17.80;65.70;;;;;;5045734;28;798;-70
2023/02/24 04:10:56;;;;;;;;;;;17.80;65.70;;;;;;5037806;28;1199;-70
2023/02/24 04:13:45;;;;;;;;;;;17.80;65.70;;;;;;5036248;28;1387;-70
2023/02/24 04:16:26;;;;;;;;;;;17.80;65.70;;;;;;5032363;28;1130;-70
2023/02/24 04:18:52;;;;;;;;;;;17.80;65.70;;;;;;5037048;28;855;-70
2023/02/24 04:21:18;;;;;;;;;;;17.80;65.70;;;;;;5039511;28;1913;-70
2023/02/24 04:23:43;;;;;;;;;;;17.80;65.70;;;;;;5040120;28;1184;-70
2023/02/24 04:26:11;;;;;;;;;;;17.80;65.70;;;;;;5040287;28;886;-70
2023/02/24 04:28:36;;;;;;;;;;;17.80;65.70;;;;;;5038029;28;875;-70
2023/02/24 04:31:08;;;;;;;;;;;17.80;65.70;;;;;;5038882;28;1244;-70
2023/02/24 04:33:34;;;;;;;;;;;17.80;66.50;;;;;;5038518;28;1199;-70
2023/02/24 04:35:59;;;;;;;;;;;17.80;65.70;;;;;;5039085;28;949;-70
2023/02/24 04:38:25;;;;;;;;;;;17.80;66.50;;;;;;5038289;28;1366;-70
2023/02/24 04:40:50;;;;;;;;;;;17.80;65.70;;;;;;5038101;28;1282;-70
2023/02/24 04:43:16;;;;;;;;;;;17.80;65.70;;;;;;5036433;28;1898;-70
2023/02/24 04:45:41;;;;;;;;;;;17.80;65.70;;;;;;5035085;28;820;-70
2023/02/24 04:48:11;;;;;;;;;;;17.70;65.70;;;;;;5042975;28;834;-70
2023/02/24 04:50:38;;;;;;;;;;;17.70;65.70;;;;;;5042246;28;1270;-69
2023/02/24 04:53:08;;;;;;;;;;;17.80;65.70;;;;;;5042922;28;899;-69
2023/02/24 04:55:38;;;;;;;;;;;17.70;65.70;;;;;;5042441;28;859;-69
2023/02/24 04:58:03;;;;;;;;;;;17.70;65.70;;;;;;5038926;28;840;-70
2023/02/24 05:00:32;;;;;;;;;;;17.70;65.70;;;;;;5026532;28;1634;-69
2023/02/24 05:02:58;;;;;;;;;;;17.70;65.70;;;;;;5042729;28;1898;-69
2023/02/24 05:05:24;;;;;;;;;;;17.70;65.70;;;;;;5045758;28;806;-69
2023/02/24 05:08:10;;;;;;;;;;;17.70;65.70;;;;;;5038643;28;888;-69
2023/02/24 05:10:37;;;;;;;;;;;17.80;65.70;;;;;;5040459;28;1378;-70
2023/02/24 05:13:02;;;;;;;;;;;17.80;65.70;;;;;;5041565;28;891;-70
2023/02/24 05:15:32;;;;;;;;;;;17.80;65.60;;;;;;5040599;28;1172;-70
2023/02/24 05:18:03;;;;;;;;;;;17.80;65.50;;;;;;5042897;28;934;-70
2023/02/24 05:23:15;;;;;;;;;;;17.90;65.30;;;;;;5040938;28;1914;-70
2023/02/24 05:25:41;;;;;;;;;;;17.90;65.10;;;;;;5042885;28;867;-69
2023/02/24 05:28:07;;;;;;;;;;;18.00;64.90;;;;;;5038839;28;864;-70
2023/02/24 05:30:32;;;;;;;;;;;18.00;64.80;;;;;;5041208;28;1402;-69
2023/02/24 05:32:58;;;;;;;;;;;18.00;64.70;;;;;;5040364;28;836;-69
2023/02/24 05:35:24;;;;;;;;;;;18.10;64.60;;;;;;5038241;28;871;-70
2023/02/24 05:37:50;;;;;;;;;;;18.10;64.50;;;;;;5042964;28;969;-70
2023/02/24 05:40:18;;;;;;;;;;;18.20;64.40;;;;;;5039711;28;1272;-69
2023/02/24 05:42:44;;;;;;;;;;;18.30;64.20;;;;;;5041401;28;1910;-70
2023/02/24 05:45:10;;;;;;;;;;;18.40;64.00;;;;;;5040608;28;863;-69
2023/02/24 05:47:36;;;;;;;;;;;18.60;63.70;;;;;;5039168;28;1704;-73
2023/02/24 05:50:02;;;;;;;;;;;18.70;63.20;;;;;;5041949;28;2069;-71
2023/02/24 05:52:27;;;;;;;;;;;18.90;62.70;;;;;;5044645;28;1379;-70
2023/02/24 05:54:53;;;;;;;;;;;19.10;62.30;;;;;;5042264;28;932;-70
2023/02/24 05:57:31;;;;;;;;;;;19.20;61.90;;;;;;5046087;28;867;-69
2023/02/24 05:59:57;;;;;;;;;;;19.40;61.50;;;;;;5042897;28;844;-71
2023/02/24 06:02:26;;;;;;;;;;;19.50;61.00;;;;;;5037886;28;1984;-70
2023/02/24 06:04:52;;;;;;;;;;;19.70;60.80;;;;;;5044541;28;876;-71
2023/02/24 06:07:21;;;;;;;;;;;19.80;60.50;;;;;;5036680;28;818;-71
2023/02/24 06:09:52;;;;;;;;;;;19.90;60.10;;;;;;5040498;28;891;-69
2023/02/24 06:12:18;;;;;;;;;;;19.90;59.80;;;;;;5040083;28;2047;-69
2023/02/24 06:14:44;;;;;;;;;;;20.10;59.70;;;;;;5040739;28;1471;-71
2023/02/24 06:17:09;;;;;;;;;;;20.10;59.40;;;;;;5041788;28;1253;-69
2023/02/24 06:19:35;;;;;;;;;;;20.20;59.20;;;;;;5044017;28;919;-70
2023/02/24 06:22:00;;;;;;;;;;;20.30;59.10;;;;;;5037928;28;1985;-72
2023/02/24 06:24:27;;;;;;;;;;;20.30;59.00;;;;;;5038785;28;839;-72
2023/02/24 06:26:57;;;;;;;;;;;20.40;58.80;;;;;;5040621;28;841;-72
2023/02/24 06:29:28;;;;;;;;;;;20.40;58.70;;;;;;5044599;28;883;-73
2023/02/24 06:31:53;;;;;;;;;;;20.50;58.60;;;;;;5043523;28;1271;-72
2023/02/24 06:34:19;;;;;;;;;;;20.50;58.50;;;;;;5043330;28;1236;-72
2023/02/24 06:36:45;;;;;;;;;;;20.50;58.50;;;;;;5041746;28;1168;-71
2023/02/24 06:39:13;;;;;;;;;;;20.50;58.40;;;;;;5040574;28;1266;-72
2023/02/24 06:41:38;;;;;;;;;;;20.60;58.40;;;;;;5038647;28;1987;-72
2023/02/24 06:44:04;;;;;;;;;;;20.60;58.30;;;;;;5042013;28;893;-73
2023/02/24 06:46:30;;;;;;;;;;;20.60;58.30;;;;;;5041712;28;875;-73
2023/02/24 06:48:56;;;;;;;;;;;20.60;58.30;;;;;;5041381;28;1334;-73
2023/02/24 06:51:22;;;;;;;;;;;20.60;58.20;;;;;;5039610;28;1358;-71
2023/02/24 06:53:49;;;;;;;;;;;20.60;58.20;;;;;;5041340;28;904;-71
2023/02/24 06:56:16;;;;;;;;;;;20.60;58.20;;;;;;5038561;28;1363;-72
2023/02/24 06:58:42;;;;;;;;;;;20.60;58.30;;;;;;5035814;28;828;-73
2023/02/24 07:01:10;;;;;;;;;;;20.60;58.30;;;;;;5038759;28;1905;-71
2023/02/24 07:03:39;;;;;;;;;;;20.60;58.30;;;;;;5038190;28;881;-72
2023/02/24 07:06:22;;;;;;;;;;;20.60;58.40;;;;;;5040450;28;930;-71
2023/02/24 07:08:51;;;;;;;;;;;20.60;58.50;;;;;;5031441;28;5020;-69
2023/02/24 07:11:17;;;;;;;;;;;20.60;58.60;;;;;;5040912;28;1186;-69
2023/02/24 07:13:43;;;;;;;;;;;20.50;58.60;;;;;;5038119;28;1527;-71
2023/02/24 07:16:10;;;;;;;;;;;20.50;58.70;;;;;;5038754;28;986;-73
2023/02/24 07:18:39;;;;;;;;;;;20.50;58.80;;;;;;5038515;28;863;-73
2023/02/24 07:21:10;;;;;;;;;;;20.50;58.90;;;;;;5039940;28;1906;-73
2023/02/24 07:23:36;;;;;;;;;;;20.40;59.00;;;;;;5039841;28;1290;-69
2023/02/24 07:26:05;;;;;;;;;;;20.40;59.10;;;;;;5036064;28;1081;-70
2023/02/24 07:28:30;;;;;;;;;;;20.40;59.10;;;;;;5038050;28;895;-70
2023/02/24 07:30:56;;;;;;;;;;;20.40;59.30;;;;;;5037455;28;1242;-71
2023/02/24 07:33:22;;;;;;;;;;;20.40;59.30;;;;;;5038107;28;895;-73
2023/02/24 07:35:50;;;;;;;;;;;20.30;59.20;;;;;;5035972;28;849;-73
2023/02/24 07:38:21;;;;;;;;;;;20.30;59.30;;;;;;5041727;28;1393;-71
2023/02/24 07:40:48;;;;;;;;;;;20.30;59.30;;;;;;5040996;28;1295;-73
2023/02/24 07:43:14;;;;;;;;;;;20.30;59.40;;;;;;5039101;28;1898;-73
2023/02/24 07:45:40;;;;;;;;;;;20.20;59.50;;;;;;5041717;28;1109;-74
2023/02/24 07:48:06;;;;;;;;;;;20.20;59.60;;;;;;5038640;28;896;-74
2023/02/24 07:50:32;;;;;;;;;;;20.20;59.60;;;;;;5038980;28;1344;-73
2023/02/24 07:52:58;;;;;;;;;;;20.20;59.70;;;;;;5037624;28;1263;-72
2023/02/24 07:55:29;;;;;;;;;;;20.20;59.70;;;;;;5038325;28;840;-72
2023/02/24 07:57:55;;;;;;;;;;;20.20;59.70;;;;;;5040542;28;1471;-71
2023/02/24 08:00:26;;;;;;;;;;;20.20;59.90;;;;;;5040245;28;1450;-71
2023/02/24 08:02:53;;;;;;;;;;;20.20;60.00;;;;;;5041620;28;1903;-73
2023/02/24 08:05:20;;;;;;;;;;;20.20;60.00;;;;;;5043336;28;1528;-70
2023/02/24 08:07:49;;;;;;;;;;;20.20;61.10;;;;;;5031405;28;1391;-70
2023/02/24 08:10:23;;;;;;;;;;;20.30;60.50;;;;;;5039840;28;958;-70
2023/02/24 08:12:53;;;;;;;;;;;20.30;61.00;;;;;;5037086;28;951;-70
2023/02/24 08:15:24;;;;;;;;;;;20.30;61.00;;;;;;5039020;28;819;-70
2023/02/24 08:17:53;;;;;;;;;;;20.20;61.20;;;;;;5040391;28;882;-70
2023/02/24 08:22:50;;;;;;;;;;;20.30;61.50;;;;;;5039870;28;1910;-71
2023/02/24 08:25:21;;;;;;;;;;;20.20;61.40;;;;;;5041619;28;938;-70
2023/02/24 08:27:55;;;;;;;;;;;20.20;61.40;;;;;;5044227;28;891;-70
2023/02/24 08:30:28;;;;;;;;;;;20.30;61.70;;;;;;5051450;28;1288;-70
2023/02/24 08:32:57;;;;;;;;;;;20.20;61.80;;;;;;5030624;28;1427;-70
2023/02/24 08:35:30;;;;;;;;;;;20.20;62.20;;;;;;5042709;28;894;-71
2023/02/24 08:38:02;;;;;;;;;;;20.20;62.40;;;;;;5049306;28;1602;-70
2023/02/24 08:46:12;;;;;;;;;;;20.20;63.40;;;;;;5010270;28;1398;-70
2023/02/24 08:48:41;;;;;;;;;;;20.20;63.80;;;;;;5046391;28;1383;-71
2023/02/24 08:51:09;;;;;;;;;;;20.10;64.10;;;;;;5042599;28;1248;-71
2023/02/24 08:53:39;;;;;;;;;;;20.10;64.80;;;;;;5045303;28;1259;-71
2023/02/24 08:56:10;;;;;;;;;;;20.10;66.40;;;;;;5043937;28;907;-71
2023/02/24 08:58:48;;;;;;;;;;;20.10;66.30;;;;;;5042148;28;1246;-71
2023/02/24 09:01:18;;;;;;;;;;;20.10;66.30;;;;;;5039915;28;1979;-71
2023/02/24 09:03:47;;;;;;;;;;;20.10;66.20;;;;;;5039818;28;816;-71
2023/02/24 09:06:15;;;;;;;;;;;20.10;66.30;;;;;;5042270;28;883;-71
2023/02/24 09:08:41;;;;;;;;;;;20.00;66.10;;;;;;5040457;28;906;-71
2023/02/24 09:11:08;;;;;;;;;;;20.10;66.20;;;;;;5044663;28;1206;-71
2023/02/24 09:13:41;;;;;;;;;;;20.00;66.00;;;;;;5044191;28;859;-71
2023/02/24 09:16:15;;;;;;;;;;;20.00;66.10;;;;;;5039937;28;933;-71
2023/02/24 09:18:41;;;;;;;;;;;20.00;65.90;;;;;;5039774;28;875;-71
2023/02/24 09:24:06;;;;;;;;;;;20.00;66.00;;;;;;5042542;28;1198;-71
2023/02/24 09:26:42;;;;;;;;;;;20.00;65.80;;;;;;5039406;28;852;-71
2023/02/24 09:29:32;;;;;;;;;;;20.00;65.70;;;;;;5040346;28;835;-71
2023/02/24 09:32:03;;;;;;;;;;;20.00;65.60;;;;;;5038927;28;1259;-71
2023/02/24 09:34:44;;;;;;;;;;;20.00;65.60;;;;;;5043358;28;984;-71
2023/02/24 09:37:23;;;;;;;;;;;20.00;65.50;;;;;;5047200;28;1112;-72
2023/02/24 09:44:56;;;;;;;;;;;20.00;65.60;;;;;;5040716;28;759;-71
2023/02/24 09:47:38;;;;;;;;;;;20.00;65.60;;;;;;5040243;28;1078;-70
2023/02/24 09:50:18;;;;;;;;;;;20.00;65.50;;;;;;5040211;28;860;-71
2023/02/24 09:52:45;;;;;;;;;;;20.00;65.40;;;;;;5054583;28;1271;-72
2023/02/24 09:55:25;;;;;;;;;;;20.00;65.20;;;;;;5042633;28;829;-70
2023/02/24 10:00:43;;;;;;;;;;;20.00;65.20;;;;;;5040565;28;1362;-71
2023/02/24 10:03:18;;;;;;;;;;;20.00;65.10;;;;;;5043207;28;2013;-72
2023/02/24 10:06:10;;;;;;;;;;;20.00;65.10;;;;;;5040905;28;2095;-72
2023/02/24 10:08:37;;;;;;;;;;;20.00;65.10;;;;;;5046962;28;1584;-71
2023/02/24 10:11:06;;;;;;;;;;;20.00;65.10;;;;;;5041043;28;1271;-71
2023/02/24 10:13:32;;;;;;;;;;;20.00;65.00;;;;;;5038886;28;970;-72
2023/02/24 10:15:57;;;;;;;;;;;20.00;65.00;;;;;;5039940;28;1037;-71
2023/02/24 10:18:26;;;;;;;;;;;20.10;65.10;;;;;;5037984;28;879;-71
2023/02/24 10:20:52;;;;;;;;;;;20.00;65.70;;;;;;5040189;28;1302;-71
2023/02/24 10:23:31;;;;;;;;;;;20.10;65.10;;;;;;5040358;28;1914;-71
2023/02/24 10:26:03;;;;;;;;;;;20.00;65.40;;;;;;5040372;28;891;-71
2023/02/24 10:28:37;;;;;;;;;;;20.00;65.50;;;;;;5041260;28;1746;-71
2023/02/24 10:31:08;;;;;;;;;;;20.00;65.60;;;;;;5036180;28;1370;-71
2023/02/24 10:33:44;;;;;;;;;;;20.00;65.80;;;;;;5037784;28;839;-71
2023/02/24 10:36:16;;;;;;;;;;;20.00;65.90;;;;;;5038505;28;884;-70
2023/02/24 10:38:44;;;;;;;;;;;20.00;66.00;;;;;;5043593;28;1398;-71
2023/02/24 10:41:10;;;;;;;;;;;20.00;66.00;;;;;;5039936;28;1870;-71
2023/02/24 10:43:44;;;;;;;;;;;20.00;65.90;;;;;;5041989;28;1146;-71
2023/02/24 10:46:24;;;;;;;;;;;20.00;65.90;;;;;;5040380;28;828;-71
2023/02/24 10:48:50;;;;;;;;;;;20.00;65.90;;;;;;5039231;28;880;-71
2023/02/24 10:51:20;;;;;;;;;;;20.00;66.00;;;;;;5040929;28;1255;-70
2023/02/24 10:53:52;;;;;;;;;;;19.90;65.90;;;;;;5039229;28;836;-70
2023/02/24 10:56:29;;;;;;;;;;;19.90;65.90;;;;;;5037957;28;887;-71
2023/02/24 11:01:58;;;;;;;;;;;19.90;66.20;;;;;;5032031;28;1898;-71
2023/02/24 11:07:09;;;;;;;;;;;19.90;66.30;;;;;;5041837;28;1322;-71
2023/02/24 11:09:42;;;;;;;;;;;19.90;66.30;;;;;;5043720;28;903;-71
2023/02/24 11:17:47;;;;;;;;;;;19.90;66.30;;;;;;5043851;28;1055;-71
2023/02/24 11:20:16;;;;;;;;;;;19.90;66.20;;;;;;5069125;28;2030;-70
2023/02/24 11:22:42;;;;;;;;;;;19.90;66.10;;;;;;5039897;28;2301;-70
2023/02/24 11:25:11;;;;;;;;;;;19.90;66.10;;;;;;5035634;28;1460;-69
2023/02/24 11:27:39;;;;;;;;;;;19.90;66.10;;;;;;5045380;28;1538;-70
2023/02/24 11:30:20;;;;;;;;;;;19.90;66.20;;;;;;5038034;28;1459;-71
2023/02/24 11:32:49;;;;;;;;;;;19.90;66.00;;;;;;5038050;28;812;-72
2023/02/24 11:35:26;;;;;;;;;;;19.90;65.90;;;;;;5043844;28;863;-72
2023/02/24 11:38:11;;;;;;;;;;;19.90;66.00;;;;;;5035874;28;1385;-72
2023/02/24 11:40:37;;;;;;;;;;;19.90;66.10;;;;;;5043860;28;1280;-71
2023/02/24 11:43:09;;;;;;;;;;;19.90;66.00;;;;;;5042046;28;1902;-72
2023/02/24 11:45:34;;;;;;;;;;;20.00;66.00;;;;;;5043320;28;1233;-71
2023/02/24 11:48:00;;;;;;;;;;;19.90;66.00;;;;;;5037952;28;1964;-72
2023/02/24 11:50:31;;;;;;;;;;;19.90;66.10;;;;;;5040052;28;1418;-71
2023/02/24 11:52:57;;;;;;;;;;;19.90;66.00;;;;;;5034741;28;1390;-70
2023/02/24 11:55:31;;;;;;;;;;;19.90;66.10;;;;;;5036037;28;1642;-70
2023/02/24 11:57:58;;;;;;;;;;;19.90;66.10;;;;;;5029924;28;1474;-69
2023/02/24 12:00:23;;;;;;;;;;;19.80;66.30;;;;;;5040792;28;1263;-68
2023/02/24 12:03:01;;;;;;;;;;;19.80;66.30;;;;;;5037991;28;2120;-69
2023/02/24 12:05:29;;;;;;;;;;;19.80;66.60;;;;;;5039923;28;1461;-69
2023/02/24 12:08:04;;;;;;;;;;;19.80;66.80;;;;;;5033955;28;1323;-69
2023/02/24 12:10:49;;;;;;;;;;;19.80;66.80;;;;;;5037119;28;2175;-70
2023/02/24 12:13:18;;;;;;;;;;;19.70;67.00;;;;;;5036525;28;1025;-70
2023/02/24 12:16:09;;;;;;;;;;;19.70;67.40;;;;;;5039183;28;1428;-70
2023/02/24 12:18:36;;;;;;;;;;;19.70;67.50;;;;;;5032195;28;1184;-70
2023/02/24 12:21:08;;;;;;;;;;;19.70;68.30;;;;;;5039545;28;1741;-68
2023/02/24 12:23:36;;;;;;;;;;;19.70;68.40;;;;;;5025698;28;1902;-70
2023/02/24 12:26:05;;;;;;;;;;;19.70;68.80;;;;;;5030789;28;896;-70
2023/02/24 12:28:51;;;;;;;;;;;19.70;69.00;;;;;;5041823;28;903;-69
2023/02/24 12:31:36;;;;;;;;;;;19.70;68.60;;;;;;5036432;28;1300;-69
2023/02/24 12:34:07;;;;;;;;;;;19.70;68.50;;;;;;5019222;28;1489;-70
2023/02/24 12:36:52;;;;;;;;;;;19.70;68.60;;;;;;5043189;28;1400;-69
2023/02/24 12:39:27;;;;;;;;;;;19.60;68.70;;;;;;5038909;28;853;-69
2023/02/24 12:41:55;;;;;;;;;;;19.60;68.20;;;;;;5022957;28;1906;-70
2023/02/24 12:44:34;;;;;;;;;;;19.60;68.40;;;;;;5039864;28;1370;-69
2023/02/24 12:47:03;;;;;;;;;;;19.60;68.30;;;;;;5036674;28;925;-70
2023/02/24 12:49:28;;;;;;;;;;;19.60;68.40;;;;;;5047175;28;913;-69
2023/02/24 12:51:59;;;;;;;;;;;19.60;68.40;;;;;;5042127;28;1286;-71
2023/02/24 12:54:29;;;;;;;;;;;19.60;68.30;;;;;;5044487;28;2183;-70
2023/02/24 12:56:54;;;;;;;;;;;19.60;68.40;;;;;;5041286;28;1337;-71
2023/02/24 12:59:21;;;;;;;;;;;19.50;68.30;;;;;;5042187;28;1669;-69
2023/02/24 13:01:50;;;;;;;;;;;19.50;68.30;;;;;;5041892;28;1906;-69
2023/02/24 13:04:15;;;;;;;;;;;19.50;68.50;;;;;;5039713;28;870;-70
2023/02/24 13:06:59;;;;;;;;;;;19.50;65.80;;;;;;5039057;28;892;-69
2023/02/24 13:09:40;;;;;;;;;;;19.50;59.60;;;;;;5047133;28;1191;-68
2023/02/24 13:12:12;;;;;;;;;;;19.30;57.10;;;;;;5043619;28;1294;-68
2023/02/24 13:14:39;;;;;;;;;;;19.30;56.20;;;;;;5039825;28;1258;-68
2023/02/24 13:17:11;;;;;;;;;;;19.20;55.20;;;;;;5044999;28;1374;-69
2023/02/24 13:19:40;;;;;;;;;;;19.10;54.70;;;;;;5046786;28;1648;-69
2023/02/24 13:22:07;;;;;;;;;;;19.10;54.00;;;;;;5042957;28;1973;-69
2023/02/24 13:24:33;;;;;;;;;;;19.00;54.90;;;;;;5042323;28;848;-70
2023/02/24 13:27:05;;;;;;;;;;;19.00;55.40;;;;;;5042422;28;812;-70
2023/02/24 13:29:40;;;;;;;;;;;18.90;56.00;;;;;;5041086;28;927;-70
2023/02/24 13:32:18;;;;;;;;;;;18.90;56.20;;;;;;5042787;28;1476;-72
2023/02/24 13:34:44;;;;;;;;;;;18.90;56.40;;;;;;5040393;28;1233;-71
2023/02/24 13:37:10;;;;;;;;;;;18.90;56.70;;;;;;5045827;28;896;-71
2023/02/24 13:39:37;;;;;;;;;;;18.90;57.20;;;;;;5040356;28;923;-71
2023/02/24 13:42:19;;;;;;;;;;;18.90;57.70;;;;;;5039670;28;1902;-70
2023/02/24 13:45:01;;;;;;;;;;;18.90;58.00;;;;;;5041058;28;915;-71
2023/02/24 13:47:29;;;;;;;;;;;18.90;58.40;;;;;;5042273;28;847;-71
2023/02/24 13:50:07;;;;;;;;;;;18.90;58.60;;;;;;5042180;28;918;-71
2023/02/24 13:52:37;;;;;;;;;;;18.80;58.80;;;;;;5044157;28;1259;-71
2023/02/24 13:55:21;;;;;;;;;;;18.80;59.10;;;;;;5047616;28;828;-71
2023/02/24 13:57:49;;;;;;;;;;;18.80;59.30;;;;;;5042699;28;840;-70
2023/02/24 14:00:24;;;;;;;;;;;18.80;59.50;;;;;;5038533;28;812;-70
2023/02/24 14:02:51;;;;;;;;;;;18.80;59.70;;;;;;5040218;28;1971;-69
2023/02/24 14:05:20;;;;;;;;;;;18.80;59.90;;;;;;5040287;28;940;-70
2023/02/24 14:07:46;;;;;;;;;;;18.80;60.00;;;;;;5039880;28;1049;-70
2023/02/24 14:10:14;;;;;;;;;;;18.80;60.20;;;;;;5041292;28;877;-70
2023/02/24 14:12:40;;;;;;;;;;;18.80;60.30;;;;;;5037481;28;1324;-69
2023/02/24 14:15:06;;;;;;;;;;;18.80;60.60;;;;;;5041491;28;1166;-70
2023/02/24 14:17:35;;;;;;;;;;;18.80;60.70;;;;;;5027142;28;1342;-69
2023/02/24 14:20:06;;;;;;;;;;;18.80;60.80;;;;;;5047316;28;955;-71
2023/02/24 14:22:33;;;;;;;;;;;18.70;60.90;;;;;;5041827;28;1902;-71
2023/02/24 14:25:02;;;;;;;;;;;18.80;61.10;;;;;;5043736;28;1775;-70
2023/02/24 14:27:27;;;;;;;;;;;18.70;61.20;;;;;;5043648;28;1248;-70
2023/02/24 14:29:53;;;;;;;;;;;18.70;61.40;;;;;;5044410;28;1297;-70
2023/02/24 14:32:20;;;;;;;;;;;18.80;61.70;;;;;;5040484;28;1410;-70
2023/02/24 14:34:46;;;;;;;;;;;18.70;62.10;;;;;;5045156;28;801;-70
2023/02/24 14:37:15;;;;;;;;;;;18.80;62.20;;;;;;5040704;28;1367;-70
2023/02/24 14:39:57;;;;;;;;;;;18.80;62.20;;;;;;5045296;28;930;-70
2023/02/24 14:42:23;;;;;;;;;;;18.80;62.30;;;;;;5041434;28;1937;-71
2023/02/24 14:44:53;;;;;;;;;;;18.90;62.60;;;;;;5039897;28;1287;-70
2023/02/24 14:47:19;;;;;;;;;;;18.90;62.50;;;;;;5041447;28;1266;-68
2023/02/24 14:50:11;;;;;;;;;;;18.90;62.50;;;;;;5031095;28;811;-68
2023/02/24 14:52:41;;;;;;;;;;;18.90;62.60;;;;;;5037690;28;1392;-69
2023/02/24 14:55:06;;;;;;;;;;;18.90;62.60;;;;;;5035293;28;1801;-70
2023/02/24 14:57:42;;;;;;;;;;;18.90;63.10;;;;;;5043129;28;1354;-69
2023/02/24 15:00:11;;;;;;;;;;;19.00;63.10;;;;;;5042080;28;934;-70
2023/02/24 15:02:38;;;;;;;;;;;18.90;63.20;;;;;;5042530;28;1894;-70
2023/02/24 15:05:05;;;;;;;;;;;19.00;63.40;;;;;;5037960;28;853;-70
2023/02/24 15:07:31;;;;;;;;;;;19.00;63.20;;;;;;5037708;28;1320;-70
2023/02/24 15:09:57;;;;;;;;;;;19.00;63.40;;;;;;5039340;28;867;-70
2023/02/24 15:12:26;;;;;;;;;;;19.00;63.30;;;;;;5038760;28;1708;-69
2023/02/24 15:14:52;;;;;;;;;;;19.00;63.10;;;;;;5045955;28;897;-68
2023/02/24 15:17:18;;;;;;;;;;;19.00;63.30;;;;;;5044395;28;907;-69
2023/02/24 15:19:53;;;;;;;;;;;19.00;63.30;;;;;;5038499;28;1019;-69
2023/02/24 15:22:28;;;;;;;;;;;19.10;63.40;;;;;;5038667;28;1963;-69
2023/02/24 15:24:54;;;;;;;;;;;19.10;63.40;;;;;;5039075;28;1312;-69